Time;durP1;ratioP1;P1;durP2;ratioP2;P2;SDS_P1;SDS_P2;PMS_P1;PMS_P2;Temp;Humidity;BMP_temperature;BMP_pressure;BME280_temperature;BME280_humidity;BME280_pressure;Samples;Min_cycle;Max_cycle;Signal;HPM_P1;HPM_P2
2022/04/11 00:01:23;;;;;;;6.50;4.80;;;;;;;2.44;75.68;96658.52;1654416;87;21002;-80
2022/04/11 00:03:49;;;;;;;12.10;8.58;;;;;;;2.43;75.74;96656.41;1654684;87;21089;-80
2022/04/11 00:06:15;;;;;;;12.37;8.53;;;;;;;2.47;75.27;96662.14;1630083;88;21033;-81
2022/04/11 00:08:40;;;;;;;11.10;7.75;;;;;;;2.50;75.16;96658.84;1647625;87;21066;-81
2022/04/11 00:11:06;;;;;;;15.23;9.50;;;;;;;2.56;75.10;96660.90;1644082;87;21508;-80
2022/04/11 00:13:33;;;;;;;10.93;7.22;;;;;;;2.63;75.10;96662.52;1621498;87;21075;-81
2022/04/11 00:15:58;;;;;;;10.35;7.00;;;;;;;2.63;74.78;96667.64;1644073;87;21446;-80
2022/04/11 00:18:24;;;;;;;11.53;7.67;;;;;;;2.59;74.66;96663.67;1643873;87;21418;-80
2022/04/11 00:20:50;;;;;;;17.17;10.85;;;;;;;2.60;74.79;96669.16;1645243;87;20972;-81
2022/04/11 00:23:16;;;;;;;12.78;9.95;;;;;;;2.59;74.75;96668.34;1630022;87;21003;-80
2022/04/11 00:25:42;;;;;;;12.47;8.68;;;;;;;2.57;74.76;96670.22;1626757;88;21401;-81
2022/04/11 00:28:08;;;;;;;18.48;11.57;;;;;;;2.56;74.95;96668.59;1633406;87;21010;-80
2022/04/11 00:30:34;;;;;;;16.37;10.75;;;;;;;2.55;74.89;96671.29;1655058;87;21042;-80
2022/04/11 00:33:00;;;;;;;15.98;10.05;;;;;;;2.57;75.05;96668.94;1654630;85;21075;-80
2022/04/11 00:35:26;;;;;;;17.87;11.33;;;;;;;2.60;74.92;96667.43;1654904;87;21018;-80
2022/04/11 00:37:51;;;;;;;16.57;9.55;;;;;;;2.62;74.90;96672.44;1654972;87;21046;-80
2022/04/11 00:40:17;;;;;;;13.38;9.95;;;;;;;2.63;75.01;96676.16;1643634;87;21416;-81
2022/04/11 00:42:43;;;;;;;31.30;26.87;;;;;;;2.65;74.80;96670.89;1623106;88;20958;-81
2022/04/11 00:45:09;;;;;;;20.75;13.95;;;;;;;2.62;74.77;96678.84;1622779;88;20970;-80
2022/04/11 00:47:35;;;;;;;13.03;9.58;;;;;;;2.57;74.95;96675.82;1623192;88;21343;-81
2022/04/11 00:50:08;;;;;;;12.28;8.63;;;;;;;2.54;74.74;96684.58;1622482;88;21048;-81
2022/04/11 00:52:37;;;;;;;13.98;9.90;;;;;;;2.58;75.01;96685.95;1621519;88;21376;-80
2022/04/11 00:55:05;;;;;;;13.30;9.63;;;;;;;2.63;74.88;96688.17;1622619;88;21355;-81
2022/04/11 00:57:30;;;;;;;10.80;7.20;;;;;;;2.67;75.06;96692.91;1622938;88;21072;-81
2022/04/11 00:59:57;;;;;;;8.23;7.20;;;;;;;2.64;74.50;96693.17;1623112;87;21073;-80
2022/04/11 01:02:22;;;;;;;7.95;6.53;;;;;;;2.61;74.62;96695.98;1652193;87;21007;-80
2022/04/11 01:04:48;;;;;;;8.90;6.53;;;;;;;2.60;74.60;96703.78;1654686;87;21039;-80
2022/04/11 01:07:14;;;;;;;9.30;6.60;;;;;;;2.61;74.58;96704.16;1637098;87;20951;-81
2022/04/11 01:09:40;;;;;;;7.70;6.50;;;;;;;2.64;74.65;96695.73;1626767;88;21065;-81
2022/04/11 01:12:07;;;;;;;8.90;7.05;;;;;;;2.65;74.61;96701.21;1626796;88;21062;-81
2022/04/11 01:14:33;;;;;;;9.73;7.10;;;;;;;2.67;74.63;96702.36;1626906;88;21361;-81
2022/04/11 01:16:59;;;;;;;12.35;8.53;;;;;;;2.67;74.91;96705.74;1628831;87;21038;-81
2022/04/11 01:19:25;;;;;;;9.05;7.47;;;;;;;2.66;74.71;96698.17;1654936;87;20991;-81
2022/04/11 01:21:51;;;;;;;8.98;6.95;;;;;;;2.63;74.75;96697.95;1603836;88;20970;-81
2022/04/11 01:24:23;;;;;;;9.23;6.95;;;;;;;2.62;74.82;96695.52;1654965;87;20998;-80
2022/04/11 01:26:50;;;;;;;8.60;7.65;;;;;;;2.62;74.95;96691.20;1654980;87;21089;-81
2022/04/11 01:29:18;;;;;;;11.12;7.22;;;;;;;2.63;74.75;96692.02;1654931;87;21082;-81
2022/04/11 01:31:45;;;;;;;9.23;7.17;;;;;;;2.62;74.68;96691.20;1654633;85;21448;-80
2022/04/11 01:34:11;;;;;;;9.00;7.78;;;;;;;2.61;74.79;96692.14;1633767;87;21053;-80
2022/04/11 01:36:36;;;;;;;10.60;7.97;;;;;;;2.60;74.93;96705.06;1652514;87;21077;-81
2022/04/11 01:39:02;;;;;;;9.15;7.35;;;;;;;2.59;74.94;96705.53;1654585;86;21138;-81
2022/04/11 01:41:28;;;;;;;8.28;6.87;;;;;;;2.58;74.90;96703.09;1654918;87;21140;-81
2022/04/11 01:43:54;;;;;;;9.50;7.00;;;;;;;2.59;75.06;96712.42;1655050;87;21087;-81
2022/04/11 01:46:20;;;;;;;9.68;7.97;;;;;;;2.61;74.84;96709.29;1654858;87;21090;-80
2022/04/11 01:48:45;;;;;;;8.33;7.40;;;;;;;2.64;74.90;96716.27;1654907;87;21046;-81
2022/04/11 01:51:13;;;;;;;11.45;8.85;;;;;;;2.64;74.89;96714.98;1655061;87;21523;-80
2022/04/11 01:53:39;;;;;;;9.75;7.58;;;;;;;2.63;74.90;96706.94;1654870;87;21420;-81
2022/04/11 01:56:05;;;;;;;9.83;7.62;;;;;;;2.64;74.99;96716.73;1627281;87;21038;-81
2022/04/11 01:58:31;;;;;;;9.48;6.62;;;;;;;2.63;75.14;96724.09;1626917;88;21009;-80
2022/04/11 02:00:58;;;;;;;7.87;6.30;;;;;;;2.64;74.83;96721.86;1626937;88;21425;-81
2022/04/11 02:03:26;;;;;;;9.38;6.40;;;;;;;2.67;74.88;96720.33;1626976;88;21441;-80
2022/04/11 02:05:52;;;;;;;8.80;7.05;;;;;;;2.70;74.75;96723.45;1629372;87;21018;-80
2022/04/11 02:08:17;;;;;;;8.55;6.83;;;;;;;2.72;74.85;96718.19;1627053;88;21018;-81
2022/04/11 02:10:43;;;;;;;11.05;8.40;;;;;;;2.70;74.62;96728.58;1652985;87;21325;-81
2022/04/11 02:13:09;;;;;;;10.43;8.15;;;;;;;;;;1653575;87;21026;-81
2022/04/11 02:15:34;;;;;;;9.13;7.20;;;;;;;2.67;74.59;96727.55;1653601;87;21026;-80
2022/04/11 02:18:00;;;;;;;8.40;7.30;;;;;;;2.63;74.80;96727.47;1653647;87;21018;-80
2022/04/11 02:20:26;;;;;;;11.00;8.23;;;;;;;2.62;74.65;96727.59;1653316;87;21050;-80
2022/04/11 02:22:55;;;;;;;11.05;6.90;;;;;;;;;;1653780;87;21010;-81
2022/04/11 02:25:24;;;;;;;8.10;7.20;;;;;;;2.58;74.51;96727.47;1653459;87;21393;-81
2022/04/11 02:27:50;;;;;;;8.03;6.97;;;;;;;2.55;74.51;96725.16;1653543;87;21050;-80
2022/04/11 02:30:17;;;;;;;11.12;7.72;;;;;;;2.53;74.79;96725.75;1653937;87;21079;-81
2022/04/11 02:32:45;;;;;;;10.58;8.40;;;;;;;2.54;74.83;96727.38;1653777;85;21050;-80
2022/04/11 02:35:11;;;;;;;8.70;6.83;;;;;;;2.55;74.80;96727.72;1654953;87;21106;-80
2022/04/11 02:37:37;;;;;;;11.57;8.15;;;;;;;2.56;74.65;96732.73;1655062;87;21094;-80
2022/04/11 02:40:04;;;;;;;10.15;7.47;;;;;;;2.60;74.77;96733.28;1654867;87;21065;-80
2022/04/11 02:42:30;;;;;;;10.32;7.90;;;;;;;2.64;74.82;96739.82;1654764;87;21097;-81
2022/04/11 02:44:55;;;;;;;9.05;7.20;;;;;;;2.62;74.41;96739.13;1652806;87;21314;-81
2022/04/11 02:47:21;;;;;;;12.58;6.50;;;;;;;2.60;74.36;96739.70;1655022;87;20994;-81
2022/04/11 02:49:47;;;;;;;8.43;6.15;;;;;;;2.57;74.24;96738.20;1655017;87;20986;-81
2022/04/11 02:52:13;;;;;;;8.18;6.58;;;;;;;2.53;74.32;96746.27;1644444;87;20963;-81
2022/04/11 02:54:39;;;;;;;9.30;6.05;;;;;;;2.54;74.39;96747.43;1627004;87;21091;-81
2022/04/11 02:57:06;;;;;;;6.67;6.05;;;;;;;2.59;74.51;96747.05;1626987;88;21002;-80
2022/04/11 02:59:32;;;;;;;7.78;5.97;;;;;;;2.58;74.13;96744.14;1626992;87;21037;-80
2022/04/11 03:01:59;;;;;;;6.62;5.90;;;;;;;2.56;74.42;96747.30;1627117;88;21094;-80
2022/04/11 03:04:26;;;;;;;12.80;6.75;;;;;;;2.55;74.42;96750.81;1626768;88;21070;-81
2022/04/11 03:06:53;;;;;;;7.33;5.55;;;;;;;2.53;74.83;96751.41;1626813;88;21026;-80
2022/04/11 03:09:19;;;;;;;9.23;5.87;;;;;;;2.50;74.66;96749.09;1626942;88;21051;-80
2022/04/11 03:11:45;;;;;;;7.75;6.37;;;;;;;2.49;74.81;96750.03;1626810;88;21558;-80
2022/04/11 03:14:10;;;;;;;6.45;5.53;;;;;;;2.50;74.61;96750.38;1627130;88;20986;-81
2022/04/11 03:16:36;;;;;;;9.83;5.95;;;;;;;2.52;74.44;96754.44;1633090;87;20959;-80
2022/04/11 03:19:02;;;;;;;8.05;5.75;;;;;;;2.51;74.68;96757.94;1654871;87;21070;-80
2022/04/11 03:21:27;;;;;;;8.28;6.45;;;;;;;2.51;74.55;96762.26;1654905;87;21449;-81
2022/04/11 03:23:53;;;;;;;9.38;7.58;;;;;;;;;;1654923;87;20974;-80
2022/04/11 03:26:19;;;;;;;6.92;6.22;;;;;;;2.47;74.93;96760.88;1630681;87;20983;-80
2022/04/11 03:28:45;;;;;;;8.40;6.50;;;;;;;2.46;74.98;96760.54;1626638;88;21098;-80
2022/04/11 03:31:11;;;;;;;9.38;6.03;;;;;;;2.46;74.96;96761.35;1631020;87;21408;-80
2022/04/11 03:33:37;;;;;;;8.70;6.05;;;;;;;2.50;75.06;96765.77;1655007;87;20993;-81
2022/04/11 03:36:03;;;;;;;10.88;6.80;;;;;;;2.50;74.98;96764.02;1654827;87;20978;-80
2022/04/11 03:38:29;;;;;;;9.98;6.70;;;;;;;2.50;74.95;96768.33;1654726;87;20986;-81
2022/04/11 03:40:55;;;;;;;12.63;6.83;;;;;;;2.47;74.80;96775.80;1667036;86;21039;-80
2022/04/11 03:43:21;;;;;;;11.38;6.30;;;;;;;2.45;75.00;96776.86;1662239;86;20939;-80
2022/04/11 03:45:46;;;;;;;7.97;6.20;;;;;;;2.40;74.96;96783.15;1642117;87;21317;-80
2022/04/11 03:48:12;;;;;;;10.50;6.45;;;;;;;2.40;74.94;96783.15;1642368;87;20983;-81
2022/04/11 03:50:39;;;;;;;10.03;6.40;;;;;;;2.43;74.97;96783.84;1642196;87;20987;-80
2022/04/11 03:53:05;;;;;;;9.98;7.12;;;;;;;2.45;74.98;96785.37;1642190;87;21517;-81
2022/04/11 03:55:30;;;;;;;10.28;7.55;;;;;;;2.47;74.98;96781.40;1624410;88;20978;-80
2022/04/11 03:57:56;;;;;;;13.53;8.03;;;;;;;2.50;75.13;96779.87;1642229;87;21015;-80
2022/04/11 04:00:22;;;;;;;12.15;7.80;;;;;;;2.51;75.20;96782.78;1624485;88;20985;-81
2022/04/11 04:02:48;;;;;;;10.50;7.72;;;;;;;2.50;75.18;96781.16;1641526;86;21385;-80
2022/04/11 04:05:14;;;;;;;11.12;8.25;;;;;;;2.49;75.17;96785.47;1642250;87;21082;-80
2022/04/11 04:07:40;;;;;;;9.93;7.62;;;;;;;2.50;75.28;96787.09;1642111;87;21496;-80
2022/04/11 04:10:06;;;;;;;10.93;8.15;;;;;;;2.51;75.14;96791.29;1642307;87;21071;-81
2022/04/11 04:12:32;;;;;;;13.98;9.98;;;;;;;2.53;75.29;96788.59;1639511;87;21069;-80
2022/04/11 04:14:58;;;;;;;11.95;8.45;;;;;;;2.54;75.21;96792.79;1642146;87;20954;-80
2022/04/11 04:17:24;;;;;;;11.45;7.40;;;;;;;2.52;74.78;96797.23;1642148;87;21329;-80
2022/04/11 04:19:49;;;;;;;10.23;8.58;;;;;;;2.50;74.75;96800.39;1633690;86;21034;-81
2022/04/11 04:22:15;;;;;;;8.73;7.83;;;;;;;2.49;75.15;96802.14;1626445;87;21011;-81
2022/04/11 04:24:41;;;;;;;10.38;7.37;;;;;;;2.49;75.13;96802.61;1616017;87;20956;-80
2022/04/11 04:27:07;;;;;;;9.08;6.87;;;;;;;2.48;75.20;96800.52;1615821;89;21379;-81
2022/04/11 04:29:35;;;;;;;9.55;7.30;;;;;;;2.49;75.15;96805.17;1616037;87;20986;-80
2022/04/11 04:32:01;;;;;;;7.78;6.30;;;;;;;2.51;75.06;96808.43;1629807;86;21003;-80
2022/04/11 04:34:29;;;;;;;8.63;7.00;;;;;;;2.47;74.83;96813.47;1615757;87;21014;-81
2022/04/11 04:36:55;;;;;;;8.40;6.25;;;;;;;2.47;74.93;96818.13;1630950;87;21377;-81
2022/04/11 04:39:21;;;;;;;9.93;6.80;;;;;;;2.45;74.79;96820.47;1622288;87;20928;-80
2022/04/11 04:41:46;;;;;;;10.65;6.85;;;;;;;2.41;74.98;96820.69;1634494;87;21148;-81
2022/04/11 04:44:12;;;;;;;8.78;7.12;;;;;;;2.39;74.92;96826.41;1626653;88;21042;-80
2022/04/11 04:46:38;;;;;;;8.53;6.60;;;;;;;2.36;74.81;96822.80;1626788;88;20993;-81
2022/04/11 04:49:03;;;;;;;8.08;6.15;;;;;;;2.36;75.03;96824.09;1627832;87;22094;-81
2022/04/11 04:51:29;;;;;;;8.20;6.35;;;;;;;2.36;75.03;96837.37;1625377;88;21031;-80
2022/04/11 04:53:55;;;;;;;9.55;6.50;;;;;;;2.32;75.08;96832.14;1625240;88;21417;-80
2022/04/11 04:56:21;;;;;;;10.82;6.60;;;;;;;2.30;75.08;96835.30;1625244;88;21045;-80
2022/04/11 04:58:47;;;;;;;10.90;7.87;;;;;;;2.30;75.33;96836.58;1627020;87;20966;-81
2022/04/11 05:01:13;;;;;;;7.85;6.12;;;;;;;2.34;75.46;96840.06;1628692;87;21397;-80
2022/04/11 05:03:39;;;;;;;11.22;6.75;;;;;;;2.39;75.24;96846.92;1626943;88;21033;-81
2022/04/11 05:06:05;;;;;;;11.00;7.05;;;;;;;2.40;75.29;96845.17;1630151;87;21064;-80
2022/04/11 05:08:32;;;;;;;12.93;8.58;;;;;;;2.23;75.50;96818.28;1653071;87;21381;-80
2022/04/11 05:10:59;;;;;;;12.75;8.13;;;;;;;2.48;75.17;96851.00;1642686;86;21381;-80
2022/04/11 05:13:25;;;;;;;8.80;5.97;;;;;;;2.49;75.19;96851.34;1627808;87;21413;-80
2022/04/11 05:15:51;;;;;;;9.48;6.45;;;;;;;2.48;74.87;96858.70;1626435;88;21026;-80
2022/04/11 05:18:17;;;;;;;9.95;6.62;;;;;;;2.44;74.90;96858.13;1627771;87;21085;-80
2022/04/11 05:20:43;;;;;;;9.85;6.85;;;;;;;2.49;75.33;96861.61;1625990;87;21356;-80
2022/04/11 05:23:08;;;;;;;8.95;6.75;;;;;;;2.52;75.34;96862.17;1625350;87;20974;-80
2022/04/11 05:25:34;;;;;;;9.43;7.10;;;;;;;2.59;75.30;96864.59;1635944;87;21000;-80
2022/04/11 05:28:00;;;;;;;10.53;7.17;;;;;;;2.62;75.48;96868.23;1626397;87;21448;-80
2022/04/11 05:30:26;;;;;;;10.72;7.00;;;;;;;2.63;75.22;96866.48;1629780;87;20988;-80
2022/04/11 05:32:52;;;;;;;13.35;7.65;;;;;;;2.65;75.24;96867.16;1634920;86;21085;-80
2022/04/11 05:35:18;;;;;;;16.52;13.72;;;;;;;2.69;75.90;96869.83;1635741;87;21065;-80
2022/04/11 05:37:44;;;;;;;9.95;6.75;;;;;;;2.71;75.59;96875.19;1651144;87;20974;-80
2022/04/11 05:40:12;;;;;;;12.03;7.30;;;;;;;2.71;75.17;96872.62;1623119;87;21055;-80
2022/04/11 05:42:37;;;;;;;10.43;8.95;;;;;;;2.74;75.06;96875.87;1621893;87;21035;-80
2022/04/11 05:45:05;;;;;;;9.95;8.23;;;;;;;2.80;75.29;96869.80;1617646;87;21371;-80
2022/04/11 05:47:30;;;;;;;9.83;6.67;;;;;;;2.85;75.34;96876.66;1625182;87;21023;-80
2022/04/11 05:49:56;;;;;;;10.60;7.45;;;;;;;2.87;74.73;96874.78;1622112;87;21013;-80
2022/04/11 05:52:22;;;;;;;9.95;7.90;;;;;;;2.84;74.88;96878.89;1618658;89;20982;-80
2022/04/11 05:54:48;;;;;;;10.40;7.20;;;;;;;2.85;74.99;96884.83;1618719;87;21429;-80
2022/04/11 05:57:13;;;;;;;11.53;7.55;;;;;;;2.83;75.11;96882.39;1618712;89;21070;-79
2022/04/11 05:59:39;;;;;;;9.25;6.22;;;;;;;2.81;74.77;96888.12;1618727;89;21080;-80
2022/04/11 06:02:05;;;;;;;7.08;5.47;;;;;;;2.82;74.76;96890.22;1639884;86;21021;-80
2022/04/11 06:04:31;;;;;;;7.15;5.72;;;;;;;2.81;74.55;96882.98;1644990;87;21023;-80
2022/04/11 06:06:58;;;;;;;11.00;6.30;;;;;;;2.78;74.67;96887.55;1644804;87;21054;-80
2022/04/11 06:09:23;;;;;;;8.50;5.90;;;;;;;2.75;74.75;96887.30;1635013;87;20987;-80
2022/04/11 06:11:49;;;;;;;9.60;7.17;;;;;;;2.78;74.91;96890.12;1630247;87;20955;-80
2022/04/11 06:14:15;;;;;;;9.70;7.58;;;;;;;2.80;74.71;96888.23;1631885;87;21007;-80
2022/04/11 06:16:41;;;;;;;10.30;7.40;;;;;;;2.78;75.25;96884.52;1621405;87;20983;-79
2022/04/11 06:19:06;;;;;;;9.43;6.65;;;;;;;2.85;75.43;96888.69;1630888;87;21146;-80
2022/04/11 06:21:32;;;;;;;8.58;6.05;;;;;;;2.90;75.17;96887.84;1642589;87;20983;-79
2022/04/11 06:23:58;;;;;;;8.48;7.08;;;;;;;2.96;75.21;96883.05;1644920;87;20991;-80
2022/04/11 06:26:23;;;;;;;7.78;6.10;;;;;;;3.02;75.29;96886.88;1645192;87;21054;-79
2022/04/11 06:28:49;;;;;;;9.55;6.78;;;;;;;3.07;75.28;96888.59;1640767;87;21349;-80
2022/04/11 06:31:15;;;;;;;8.23;7.35;;;;;;;3.09;75.02;96889.75;1627177;87;20995;-80
2022/04/11 06:33:42;;;;;;;11.28;5.95;;;;;;;3.05;74.86;96885.34;1626144;88;21037;-80
2022/04/11 06:36:08;;;;;;;8.35;5.58;;;;;;;3.06;74.96;96888.25;1629328;87;21377;-80
2022/04/11 06:38:34;;;;;;;9.00;6.30;;;;;;;3.10;75.10;96885.80;1615323;88;22000;-80
2022/04/11 06:41:00;;;;;;;10.38;7.00;;;;;;;3.16;74.99;96882.73;1641777;87;21012;-80
2022/04/11 06:43:25;;;;;;;11.57;6.53;;;;;;;3.28;75.25;96882.22;1654664;87;21069;-80
2022/04/11 06:45:51;;;;;;;8.68;6.40;;;;;;;3.40;75.22;96885.06;1654617;87;21030;-80
2022/04/11 06:48:17;;;;;;;10.45;7.40;;;;;;;3.45;75.04;96875.71;1628278;87;21333;-79
2022/04/11 06:50:43;;;;;;;7.95;5.78;;;;;;;3.50;74.79;96878.71;1640814;87;20984;-80
2022/04/11 06:53:09;;;;;;;9.00;5.92;;;;;;;3.51;74.39;96883.72;1606550;88;21036;-80
2022/04/11 06:55:35;;;;;;;8.33;6.67;;;;;;;3.53;74.32;96875.89;1592834;88;21381;-80
2022/04/11 06:58:01;;;;;;;9.10;7.30;;;;;;;3.57;74.46;96883.20;1601386;88;21034;-80
2022/04/11 07:00:28;;;;;;;11.15;6.78;;;;;;;3.59;74.31;96885.68;1600794;88;21618;-80
2022/04/11 07:02:54;;;;;;;9.25;6.25;;;;;;;3.73;74.70;96881.47;1627811;87;21342;-80
2022/04/11 07:05:21;;;;;;;8.85;6.37;;;;;;;3.86;74.82;96877.42;1642461;87;21037;-80
2022/04/11 07:07:46;;;;;;;8.08;6.75;;;;;;;3.96;74.69;96877.48;1632383;87;21341;-80
2022/04/11 07:10:12;;;;;;;10.28;6.53;;;;;;;4.02;74.21;96885.95;1649814;87;20935;-80
2022/04/11 07:12:39;;;;;;;8.93;5.58;;;;;;;4.18;74.25;96881.96;1638221;87;21052;-80
2022/04/11 07:15:06;;;;;;;11.08;5.80;;;;;;;4.42;73.95;96882.13;1644404;87;20958;-80
2022/04/11 07:17:32;;;;;;;8.45;5.92;;;;;;;4.60;73.83;96881.83;1629361;87;21463;-80
2022/04/11 07:19:58;;;;;;;8.85;6.10;;;;;;;4.80;73.25;96878.33;1641348;87;21018;-80
2022/04/11 07:22:24;;;;;;;7.20;4.85;;;;;;;5.03;73.50;96883.22;1633024;87;21369;-80
2022/04/11 07:24:50;;;;;;;7.30;4.08;;;;;;;5.17;72.52;96873.00;1627074;87;20994;-80
2022/04/11 07:27:15;;;;;;;8.95;5.45;;;;;;;5.35;70.01;96881.19;1654426;87;20982;-80
2022/04/11 07:29:41;;;;;;;7.58;4.87;;;;;;;5.41;71.71;96883.71;1647569;87;21425;-80
2022/04/11 07:32:07;;;;;;;9.75;7.05;;;;;;;5.57;71.95;96885.73;1611418;88;20953;-79
2022/04/11 07:34:33;;;;;;;7.10;5.75;;;;;;;5.65;71.35;96885.36;1635544;87;20982;-80
2022/04/11 07:36:59;;;;;;;9.13;6.30;;;;;;;5.70;70.79;96888.35;1627026;87;21432;-79
2022/04/11 07:39:24;;;;;;;8.78;6.55;;;;;;;5.76;71.32;96888.73;1627067;87;21081;-80
2022/04/11 07:41:55;;;;;;;9.80;7.33;;;;;;;5.70;70.31;96890.94;1619834;87;21050;-80
2022/04/11 07:44:23;;;;;;;10.50;7.78;;;;;;;5.62;69.94;96889.98;1619718;87;21007;-80
2022/04/11 07:46:49;;;;;;;7.72;5.12;;;;;;;5.50;70.15;96894.47;1645029;87;20965;-80
2022/04/11 07:49:15;;;;;;;10.53;4.53;;;;;;;5.38;69.24;96899.45;1626386;87;21006;-80
2022/04/11 07:51:40;;;;;;;7.65;5.22;;;;;;;5.29;69.50;96901.06;1618236;86;21425;-80
2022/04/11 07:54:07;;;;;;;8.48;5.22;;;;;;;5.26;68.70;96897.48;1637377;87;21010;-80
2022/04/11 07:56:32;;;;;;;8.10;5.65;;;;;;;5.19;69.18;96900.72;1620837;87;20956;-80
2022/04/11 07:58:58;;;;;;;9.80;6.50;;;;;;;5.19;68.87;96896.38;1619715;87;21341;-80
2022/04/11 08:01:24;;;;;;;9.90;4.65;;;;;;;5.26;69.00;96900.53;1618820;89;21018;-80
2022/04/11 08:03:50;;;;;;;7.85;4.87;;;;;;;5.18;67.70;96897.33;1618485;89;21062;-80
2022/04/11 08:06:16;;;;;;;7.25;4.62;;;;;;;5.07;68.37;96898.30;1618146;89;20991;-80
2022/04/11 08:08:44;;;;;;;6.47;4.10;;;;;;;5.07;68.40;96900.88;1618441;89;21453;-80
2022/04/11 08:11:11;;;;;;;6.65;4.78;;;;;;;5.15;67.69;96898.08;1618716;89;21099;-80
2022/04/11 08:13:39;;;;;;;6.37;4.37;;;;;;;5.21;67.27;96900.95;1618539;89;21168;-80
2022/04/11 08:16:05;;;;;;;6.75;4.15;;;;;;;5.21;67.17;96904.81;1618734;89;21424;-80
2022/04/11 08:18:31;;;;;;;7.53;4.40;;;;;;;5.17;67.32;96904.72;1618557;89;21102;-80
2022/04/11 08:20:58;;;;;;;8.25;6.47;;;;;;;5.16;67.19;96900.52;1618417;89;21093;-80
2022/04/11 08:23:24;;;;;;;8.98;7.30;;;;;;;5.24;68.33;96903.72;1618623;89;20968;-80
2022/04/11 08:25:50;;;;;;;6.50;4.92;;;;;;;5.33;69.01;96901.13;1618805;89;20986;-80
2022/04/11 08:28:16;;;;;;;8.53;5.65;;;;;;;5.31;67.49;96908.66;1618824;89;21047;-80
2022/04/11 08:30:42;;;;;;;7.75;4.67;;;;;;;5.33;67.66;96902.89;1619153;87;21074;-80
2022/04/11 08:33:08;;;;;;;6.53;3.20;;;;;;;5.38;67.92;96895.11;1644206;87;21006;-80
2022/04/11 08:35:34;;;;;;;23.77;13.10;;;;;;;5.43;67.68;96899.37;1645041;87;21402;-80
2022/04/11 08:38:00;;;;;;;11.20;6.83;;;;;;;5.54;67.78;96894.55;1644979;87;21043;-80
2022/04/11 08:40:26;;;;;;;26.23;16.60;;;;;;;5.54;67.48;96893.74;1644679;87;21046;-80
2022/04/11 08:42:51;;;;;;;19.82;13.38;;;;;;;5.49;66.83;96899.28;1645072;87;21508;-80
2022/04/11 08:45:23;;;;;;;8.13;4.65;;;;;;;5.42;66.64;96903.38;1645042;87;21361;-80
2022/04/11 08:47:50;;;;;;;7.93;5.83;;;;;;;5.37;66.40;96899.92;1645173;87;21050;-80
2022/04/11 08:50:16;;;;;;;9.05;6.85;;;;;;;5.32;66.49;96902.55;1644841;87;21010;-80
2022/04/11 08:52:42;;;;;;;7.97;5.12;;;;;;;5.30;67.19;96900.12;1644920;87;21019;-80
2022/04/11 08:55:09;;;;;;;7.80;4.00;;;;;;;5.31;66.73;96900.93;1645102;87;21381;-80
2022/04/11 08:57:38;;;;;;;10.40;5.47;;;;;;;5.33;66.97;96896.45;1645063;87;20984;-80
2022/04/11 09:00:16;;;;;;;8.30;4.33;;;;;;;5.39;67.09;96904.94;1644852;87;20987;-80
2022/04/11 09:02:42;;;;;;;9.30;4.87;;;;;;;5.41;66.73;96898.70;1644935;87;21121;-80
2022/04/11 09:05:09;;;;;;;6.83;3.40;;;;;;;5.46;66.54;96899.56;1644923;87;20963;-80
2022/04/11 09:07:50;;;;;;;7.33;5.50;;;;;;;5.53;66.51;96912.70;1644987;87;21029;-80
2022/04/11 09:10:32;;;;;;;6.85;3.60;;;;;;;5.60;66.65;96905.59;1623114;87;21030;-80
2022/04/11 09:13:05;;;;;;;7.25;3.70;;;;;;;5.57;65.57;96907.16;1644377;87;21107;-79
2022/04/11 09:15:41;;;;;;;4.83;3.45;;;;;;;5.61;65.72;96911.08;1644883;87;21357;-80
2022/04/11 09:18:06;;;;;;;6.05;3.62;;;;;;;5.67;65.51;96905.37;1644906;87;21010;-80
2022/04/11 09:20:32;;;;;;;6.03;3.58;;;;;;;5.72;66.11;96905.78;1644897;87;20991;-80
2022/04/11 09:22:58;;;;;;;5.85;3.90;;;;;;;5.72;65.16;96907.55;1646229;87;21141;-80
2022/04/11 09:25:31;;;;;;;7.62;3.70;;;;;;;5.64;64.93;96908.22;1644699;87;20963;-80
2022/04/11 09:28:08;;;;;;;8.05;3.92;;;;;;;5.59;64.73;96908.31;1624313;87;21062;-80
2022/04/11 09:30:36;;;;;;;6.30;4.22;;;;;;;5.60;66.54;96915.09;1645016;87;20995;-80
2022/04/11 09:33:05;;;;;;;8.10;4.10;;;;;;;5.60;65.33;96912.52;1646867;86;20999;-80
2022/04/11 09:35:37;;;;;;;7.45;4.03;;;;;;;5.55;64.94;96910.83;1644747;86;21441;-79
2022/04/11 09:38:19;;;;;;;4.80;3.60;;;;;;;5.54;64.94;96915.17;1645186;87;21156;-80
2022/04/11 09:40:48;;;;;;;;;;;;;;;5.57;66.38;96908.45;1648163;87;21433;-80
2022/04/11 09:43:16;;;;;;;7.58;4.10;;;;;;;5.70;66.63;96915.91;1654219;87;20124;-80
2022/04/11 09:45:48;;;;;;;6.65;3.72;;;;;;;5.77;66.76;96912.28;1654419;87;21350;-79
2022/04/11 09:48:24;;;;;;;6.00;4.60;;;;;;;5.93;67.23;96908.20;1654669;87;20971;-80
2022/04/11 09:50:51;;;;;;;8.13;4.15;;;;;;;6.06;66.72;96910.96;1654739;87;21417;-79
2022/04/11 09:53:27;;;;;;;9.55;4.80;;;;;;;6.04;65.30;96907.71;1654675;87;21054;-79
2022/04/11 09:55:53;;;;;;;8.25;4.20;;;;;;;6.08;65.15;96906.47;1654252;87;21010;-80
2022/04/11 09:58:21;;;;;;;5.55;3.80;;;;;;;6.12;65.88;96900.06;1654677;87;21010;-79
2022/04/11 10:00:49;;;;;;;5.75;3.42;;;;;;;6.20;65.11;96912.61;1654542;87;21385;-80
2022/04/11 10:03:16;;;;;;;7.00;4.35;;;;;;;6.19;65.47;96912.28;1653864;87;21062;-80
2022/04/11 10:05:42;;;;;;;5.20;3.60;;;;;;;6.23;66.12;96918.77;1654720;87;21022;-80
2022/04/11 10:08:10;;;;;;;6.85;4.20;;;;;;;6.21;64.96;96918.11;1654773;87;21070;-80
2022/04/11 10:10:38;;;;;;;6.33;3.12;;;;;;;6.29;66.87;96917.39;1654298;87;21517;-80
2022/04/11 10:13:14;;;;;;;6.22;3.77;;;;;;;6.52;65.31;96911.40;1654579;87;21082;-80
2022/04/11 10:15:41;;;;;;;4.72;4.15;;;;;;;6.65;65.70;96914.43;1654848;87;21105;-80
2022/04/11 10:18:08;;;;;;;4.62;3.80;;;;;;;6.99;66.14;96903.01;1654593;87;21397;-80
2022/04/11 10:20:40;;;;;;;5.58;3.65;;;;;;;7.31;65.40;96896.52;1630277;87;20986;-80
2022/04/11 10:23:32;;;;;;;4.97;2.70;;;;;;;7.42;64.23;96894.52;1654842;87;21077;-79
2022/04/11 10:25:59;;;;;;;6.00;3.00;;;;;;;7.50;64.02;96900.26;1654762;87;21030;-80
2022/04/11 10:28:27;;;;;;;6.35;2.95;;;;;;;7.55;62.72;96895.92;1654641;85;21134;-80
2022/04/11 10:31:11;;;;;;;5.53;3.17;;;;;;;7.44;62.21;96894.38;1654704;87;21125;-80
2022/04/11 10:33:47;;;;;;;4.90;3.58;;;;;;;7.32;62.32;96899.43;1651616;87;20991;-79
2022/04/11 10:36:36;;;;;;;3.72;2.47;;;;;;;7.38;61.95;96891.91;1628068;88;21110;-80
2022/04/11 10:39:20;;;;;;;3.98;2.80;;;;;;;7.51;59.24;96898.81;1628134;88;21061;-80
2022/04/11 10:42:02;;;;;;;4.83;2.47;;;;;;;7.57;60.93;96893.52;1627873;88;21054;-79
2022/04/11 10:44:40;;;;;;;3.45;2.67;;;;;;;7.80;60.60;96888.17;1628000;88;21137;-79
2022/04/11 10:47:15;;;;;;;4.50;2.27;;;;;;;7.73;60.49;96891.04;1628080;88;21006;-79
2022/04/11 10:49:55;;;;;;;3.37;2.12;;;;;;;7.71;59.06;96896.85;1627998;88;21021;-79
2022/04/11 10:52:41;;;;;;;4.40;2.30;;;;;;;7.61;59.49;96883.67;1627969;88;21388;-79
2022/04/11 10:55:17;;;;;;;2.95;2.12;;;;;;;7.83;60.83;96881.42;1627913;88;21055;-79
2022/04/11 10:57:59;;;;;;;2.72;2.15;;;;;;;8.07;58.79;96872.97;1628063;88;21018;-79
2022/04/11 11:00:33;;;;;;;3.73;2.17;;;;;;;7.94;58.96;96873.05;1628158;88;21029;-79
2022/04/11 11:03:02;;;;;;;2.92;2.30;;;;;;;7.67;57.42;96882.60;1627931;88;21005;-79
2022/04/11 11:05:36;;;;;;;4.53;2.95;;;;;;;7.43;57.69;96897.92;1627908;88;21073;-79
2022/04/11 11:08:15;;;;;;;5.78;2.83;;;;;;;7.16;58.12;96903.52;1628284;88;21388;-79
2022/04/11 11:10:53;;;;;;;4.20;2.45;;;;;;;6.92;59.88;96909.73;1628052;88;21026;-79
2022/04/11 11:13:42;;;;;;;2.83;1.95;;;;;;;6.74;60.09;96903.25;1627953;88;21038;-79
2022/04/11 11:16:14;;;;;;;2.05;1.45;;;;;;;6.77;61.35;96898.27;1604523;88;21054;-79
2022/04/11 11:18:50;;;;;;;;;;;;;;;6.77;61.42;96900.38;1630443;88;21033;-79
2022/04/11 11:21:29;;;;;;;3.12;2.47;;;;;;;6.90;60.77;96898.73;1628105;88;20081;-79
2022/04/11 11:24:12;;;;;;;2.77;2.10;;;;;;;7.13;62.45;96905.09;1628138;88;21077;-79
2022/04/11 11:27:03;;;;;;;4.28;2.05;;;;;;;7.38;60.97;96902.73;1635906;87;20991;-79
2022/04/11 11:29:42;;;;;;;4.08;2.00;;;;;;;7.52;59.72;96889.28;1627186;87;21011;-80
2022/04/11 11:32:09;;;;;;;3.67;2.70;;;;;;;7.59;58.76;96880.42;1629532;87;20979;-80
2022/04/11 11:34:36;;;;;;;4.80;2.35;;;;;;;7.74;59.48;96881.02;1626793;88;21002;-79
2022/04/11 11:37:06;;;;;;;4.53;2.42;;;;;;;8.00;58.75;96877.64;1629711;87;21042;-80
2022/04/11 11:39:38;;;;;;;3.30;2.50;;;;;;;8.21;58.26;96878.06;1648178;87;21117;-79
2022/04/11 11:42:09;;;;;;;5.30;2.17;;;;;;;8.47;59.01;96872.06;1650986;87;20967;-80
2022/04/11 11:44:46;;;;;;;3.77;2.07;;;;;;;8.55;58.87;96872.08;1634644;87;21028;-80